sensor_id;sensor_type;location;lat;lon;timestamp;P1;durP1;ratioP1;P2;durP2;ratioP2
50689;SDS011;54375;48.298;11.238;2022-11-21T00:00:08;1.70;;;1.20;;
50689;SDS011;54375;48.298;11.238;2022-11-21T00:03:14;2.00;;;1.40;;
50689;SDS011;54375;48.298;11.238;2022-11-21T00:06:15;2.75;;;1.52;;
50689;SDS011;54375;48.298;11.238;2022-11-21T00:09:17;2.53;;;1.40;;
50689;SDS011;54375;48.298;11.238;2022-11-21T00:12:18;2.42;;;1.33;;
50689;SDS011;54375;48.298;11.238;2022-11-21T00:15:19;1.75;;;1.48;;
50689;SDS011;54375;48.298;11.238;2022-11-21T00:18:22;2.33;;;1.50;;
50689;SDS011;54375;48.298;11.238;2022-11-21T00:21:23;2.03;;;1.52;;
50689;SDS011;54375;48.298;11.238;2022-11-21T00:24:24;1.88;;;1.40;;
50689;SDS011;54375;48.298;11.238;2022-11-21T00:27:26;4.17;;;1.93;;
50689;SDS011;54375;48.298;11.238;2022-11-21T00:30:26;2.47;;;1.45;;
50689;SDS011;54375;48.298;11.238;2022-11-21T00:33:29;2.20;;;1.40;;
50689;SDS011;54375;48.298;11.238;2022-11-21T00:36:31;2.13;;;1.30;;
50689;SDS011;54375;48.298;11.238;2022-11-21T00:39:32;1.40;;;1.17;;
50689;SDS011;54375;48.298;11.238;2022-11-21T00:42:33;2.00;;;1.50;;
50689;SDS011;54375;48.298;11.238;2022-11-21T00:45:34;4.43;;;1.50;;
50689;SDS011;54375;48.298;11.238;2022-11-21T00:48:37;3.73;;;1.50;;
50689;SDS011;54375;48.298;11.238;2022-11-21T00:51:39;2.83;;;1.60;;
50689;SDS011;54375;48.298;11.238;2022-11-21T00:54:40;3.45;;;1.83;;
50689;SDS011;54375;48.298;11.238;2022-11-21T00:57:41;2.13;;;1.47;;
50689;SDS011;54375;48.298;11.238;2022-11-21T01:00:43;2.25;;;1.30;;
50689;SDS011;54375;48.298;11.238;2022-11-21T01:03:45;1.83;;;1.23;;
50689;SDS011;54375;48.298;11.238;2022-11-21T01:06:46;2.97;;;1.60;;
50689;SDS011;54375;48.298;11.238;2022-11-21T01:09:48;4.18;;;1.70;;
50689;SDS011;54375;48.298;11.238;2022-11-21T01:12:49;1.73;;;1.33;;
50689;SDS011;54375;48.298;11.238;2022-11-21T01:15:50;2.40;;;1.52;;
50689;SDS011;54375;48.298;11.238;2022-11-21T01:18:53;2.58;;;1.55;;
50689;SDS011;54375;48.298;11.238;2022-11-21T01:21:55;2.08;;;1.58;;
50689;SDS011;54375;48.298;11.238;2022-11-21T01:24:56;3.08;;;1.42;;
50689;SDS011;54375;48.298;11.238;2022-11-21T01:27:57;3.95;;;1.38;;
50689;SDS011;54375;48.298;11.238;2022-11-21T01:31:02;2.38;;;1.48;;
50689;SDS011;54375;48.298;11.238;2022-11-21T01:34:05;2.00;;;1.60;;
50689;SDS011;54375;48.298;11.238;2022-11-21T01:37:06;3.03;;;1.52;;
50689;SDS011;54375;48.298;11.238;2022-11-21T01:40:08;3.92;;;1.70;;
50689;SDS011;54375;48.298;11.238;2022-11-21T01:43:10;2.47;;;1.60;;
50689;SDS011;54375;48.298;11.238;2022-11-21T01:46:13;2.85;;;1.55;;
50689;SDS011;54375;48.298;11.238;2022-11-21T01:49:19;2.67;;;1.85;;
50689;SDS011;54375;48.298;11.238;2022-11-21T01:52:24;3.05;;;1.50;;
50689;SDS011;54375;48.298;11.238;2022-11-21T01:55:28;2.25;;;1.52;;
50689;SDS011;54375;48.298;11.238;2022-11-21T01:58:29;2.88;;;1.75;;
50689;SDS011;54375;48.298;11.238;2022-11-21T02:01:33;3.50;;;1.70;;
50689;SDS011;54375;48.298;11.238;2022-11-21T02:04:37;2.33;;;1.40;;
50689;SDS011;54375;48.298;11.238;2022-11-21T02:07:40;3.75;;;1.90;;
50689;SDS011;54375;48.298;11.238;2022-11-21T02:10:44;3.33;;;1.40;;
50689;SDS011;54375;48.298;11.238;2022-11-21T02:13:53;3.17;;;2.08;;
50689;SDS011;54375;48.298;11.238;2022-11-21T02:16:55;2.08;;;1.40;;
50689;SDS011;54375;48.298;11.238;2022-11-21T02:20:02;5.13;;;1.67;;
50689;SDS011;54375;48.298;11.238;2022-11-21T02:23:08;3.60;;;1.50;;
50689;SDS011;54375;48.298;11.238;2022-11-21T02:26:16;2.03;;;1.55;;
50689;SDS011;54375;48.298;11.238;2022-11-21T02:29:18;2.33;;;1.80;;
50689;SDS011;54375;48.298;11.238;2022-11-21T02:32:20;2.83;;;1.40;;
50689;SDS011;54375;48.298;11.238;2022-11-21T02:35:22;2.22;;;1.50;;
50689;SDS011;54375;48.298;11.238;2022-11-21T02:38:24;3.45;;;1.55;;
50689;SDS011;54375;48.298;11.238;2022-11-21T02:41:31;6.43;;;2.05;;
50689;SDS011;54375;48.298;11.238;2022-11-21T02:44:37;2.95;;;1.40;;
50689;SDS011;54375;48.298;11.238;2022-11-21T02:47:44;2.47;;;1.65;;
50689;SDS011;54375;48.298;11.238;2022-11-21T02:50:47;2.20;;;1.30;;
50689;SDS011;54375;48.298;11.238;2022-11-21T02:53:49;3.03;;;1.50;;
50689;SDS011;54375;48.298;11.238;2022-11-21T02:56:52;2.03;;;1.20;;
50689;SDS011;54375;48.298;11.238;2022-11-21T02:59:53;3.42;;;1.92;;
50689;SDS011;54375;48.298;11.238;2022-11-21T03:02:54;4.45;;;1.70;;
50689;SDS011;54375;48.298;11.238;2022-11-21T03:05:56;3.15;;;1.45;;
50689;SDS011;54375;48.298;11.238;2022-11-21T03:08:57;3.23;;;1.60;;
50689;SDS011;54375;48.298;11.238;2022-11-21T03:12:01;3.72;;;1.48;;
50689;SDS011;54375;48.298;11.238;2022-11-21T03:15:06;3.85;;;1.48;;
50689;SDS011;54375;48.298;11.238;2022-11-21T03:18:08;3.72;;;1.40;;
50689;SDS011;54375;48.298;11.238;2022-11-21T03:21:10;4.27;;;1.30;;
50689;SDS011;54375;48.298;11.238;2022-11-21T03:24:11;3.03;;;1.40;;
50689;SDS011;54375;48.298;11.238;2022-11-21T03:27:13;1.40;;;1.00;;
50689;SDS011;54375;48.298;11.238;2022-11-21T03:30:16;2.80;;;1.35;;
50689;SDS011;54375;48.298;11.238;2022-11-21T03:33:18;4.45;;;1.48;;
50689;SDS011;54375;48.298;11.238;2022-11-21T03:36:21;2.83;;;1.27;;
50689;SDS011;54375;48.298;11.238;2022-11-21T03:39:22;4.43;;;1.30;;
50689;SDS011;54375;48.298;11.238;2022-11-21T03:42:26;3.28;;;1.38;;
50689;SDS011;54375;48.298;11.238;2022-11-21T03:45:27;1.65;;;1.13;;
50689;SDS011;54375;48.298;11.238;2022-11-21T03:48:28;2.97;;;1.27;;
50689;SDS011;54375;48.298;11.238;2022-11-21T03:51:29;2.67;;;1.38;;
50689;SDS011;54375;48.298;11.238;2022-11-21T03:54:31;5.65;;;1.40;;
50689;SDS011;54375;48.298;11.238;2022-11-21T03:57:33;3.05;;;1.30;;
50689;SDS011;54375;48.298;11.238;2022-11-21T04:00:35;3.35;;;1.30;;
50689;SDS011;54375;48.298;11.238;2022-11-21T04:03:36;2.90;;;1.30;;
50689;SDS011;54375;48.298;11.238;2022-11-21T04:06:37;3.38;;;1.77;;
50689;SDS011;54375;48.298;11.238;2022-11-21T04:09:38;3.60;;;1.40;;
50689;SDS011;54375;48.298;11.238;2022-11-21T04:12:40;6.40;;;1.75;;
50689;SDS011;54375;48.298;11.238;2022-11-21T04:15:41;3.45;;;1.52;;
50689;SDS011;54375;48.298;11.238;2022-11-21T04:18:43;6.88;;;1.40;;
50689;SDS011;54375;48.298;11.238;2022-11-21T04:21:44;4.00;;;1.70;;
50689;SDS011;54375;48.298;11.238;2022-11-21T04:24:46;3.55;;;1.50;;
50689;SDS011;54375;48.298;11.238;2022-11-21T04:27:48;4.70;;;1.70;;
50689;SDS011;54375;48.298;11.238;2022-11-21T04:30:49;3.55;;;1.70;;
50689;SDS011;54375;48.298;11.238;2022-11-21T04:33:51;3.88;;;1.77;;
50689;SDS011;54375;48.298;11.238;2022-11-21T04:36:51;4.50;;;1.30;;
50689;SDS011;54375;48.298;11.238;2022-11-21T04:39:52;6.65;;;1.50;;
50689;SDS011;54375;48.298;11.238;2022-11-21T04:42:55;4.25;;;1.45;;
50689;SDS011;54375;48.298;11.238;2022-11-21T04:45:56;8.70;;;1.65;;
50689;SDS011;54375;48.298;11.238;2022-11-21T04:48:57;5.60;;;1.45;;
50689;SDS011;54375;48.298;11.238;2022-11-21T04:51:58;3.58;;;1.55;;
50689;SDS011;54375;48.298;11.238;2022-11-21T04:54:59;2.55;;;1.33;;
50689;SDS011;54375;48.298;11.238;2022-11-21T04:58:02;4.43;;;1.55;;
50689;SDS011;54375;48.298;11.238;2022-11-21T05:01:06;3.80;;;1.40;;
50689;SDS011;54375;48.298;11.238;2022-11-21T05:04:08;5.65;;;1.30;;
50689;SDS011;54375;48.298;11.238;2022-11-21T05:07:09;4.60;;;1.57;;
50689;SDS011;54375;48.298;11.238;2022-11-21T05:10:11;1.88;;;1.20;;
50689;SDS011;54375;48.298;11.238;2022-11-21T05:13:14;2.88;;;1.20;;
50689;SDS011;54375;48.298;11.238;2022-11-21T05:16:15;3.70;;;1.20;;
50689;SDS011;54375;48.298;11.238;2022-11-21T05:19:16;4.33;;;1.00;;
50689;SDS011;54375;48.298;11.238;2022-11-21T05:22:17;1.50;;;0.90;;
50689;SDS011;54375;48.298;11.238;2022-11-21T05:25:18;2.47;;;1.20;;
50689;SDS011;54375;48.298;11.238;2022-11-21T05:28:21;2.60;;;1.00;;
50689;SDS011;54375;48.298;11.238;2022-11-21T05:31:22;2.53;;;1.20;;
50689;SDS011;54375;48.298;11.238;2022-11-21T05:34:23;2.53;;;1.10;;
50689;SDS011;54375;48.298;11.238;2022-11-21T05:37:24;3.80;;;1.20;;
50689;SDS011;54375;48.298;11.238;2022-11-21T05:40:25;1.90;;;1.15;;
50689;SDS011;54375;48.298;11.238;2022-11-21T05:43:28;2.70;;;1.20;;
50689;SDS011;54375;48.298;11.238;2022-11-21T05:49:29;2.72;;;1.10;;
50689;SDS011;54375;48.298;11.238;2022-11-21T05:52:30;4.55;;;1.30;;
50689;SDS011;54375;48.298;11.238;2022-11-21T05:55:32;2.47;;;1.20;;
50689;SDS011;54375;48.298;11.238;2022-11-21T05:58:35;2.28;;;1.17;;
50689;SDS011;54375;48.298;11.238;2022-11-21T06:01:36;4.75;;;1.30;;
50689;SDS011;54375;48.298;11.238;2022-11-21T06:04:37;2.67;;;1.52;;
50689;SDS011;54375;48.298;11.238;2022-11-21T06:07:38;2.05;;;1.10;;
50689;SDS011;54375;48.298;11.238;2022-11-21T06:10:39;3.95;;;1.13;;
50689;SDS011;54375;48.298;11.238;2022-11-21T06:13:41;2.35;;;1.27;;
50689;SDS011;54375;48.298;11.238;2022-11-21T06:16:43;1.90;;;1.23;;
50689;SDS011;54375;48.298;11.238;2022-11-21T06:19:44;4.60;;;1.42;;
50689;SDS011;54375;48.298;11.238;2022-11-21T06:22:45;3.45;;;1.48;;
50689;SDS011;54375;48.298;11.238;2022-11-21T06:25:46;2.28;;;1.40;;
50689;SDS011;54375;48.298;11.238;2022-11-21T06:28:56;2.38;;;1.42;;
50689;SDS011;54375;48.298;11.238;2022-11-21T06:31:57;6.32;;;2.40;;
50689;SDS011;54375;48.298;11.238;2022-11-21T06:34:58;3.67;;;1.97;;
50689;SDS011;54375;48.298;11.238;2022-11-21T06:37:59;8.25;;;2.03;;
50689;SDS011;54375;48.298;11.238;2022-11-21T06:41:03;4.18;;;2.35;;
50689;SDS011;54375;48.298;11.238;2022-11-21T06:44:05;4.90;;;1.85;;
50689;SDS011;54375;48.298;11.238;2022-11-21T06:47:06;5.03;;;2.15;;
50689;SDS011;54375;48.298;11.238;2022-11-21T06:50:08;4.82;;;2.63;;
50689;SDS011;54375;48.298;11.238;2022-11-21T06:53:10;6.00;;;2.50;;
50689;SDS011;54375;48.298;11.238;2022-11-21T06:56:11;4.10;;;2.05;;
50689;SDS011;54375;48.298;11.238;2022-11-21T06:59:13;5.63;;;2.38;;
50689;SDS011;54375;48.298;11.238;2022-11-21T07:02:14;5.03;;;3.00;;
50689;SDS011;54375;48.298;11.238;2022-11-21T07:05:15;3.77;;;1.63;;
50689;SDS011;54375;48.298;11.238;2022-11-21T07:08:16;4.40;;;1.80;;
50689;SDS011;54375;48.298;11.238;2022-11-21T07:11:17;2.63;;;1.40;;
50689;SDS011;54375;48.298;11.238;2022-11-21T07:14:20;2.13;;;1.60;;
50689;SDS011;54375;48.298;11.238;2022-11-21T07:17:21;3.53;;;1.50;;
50689;SDS011;54375;48.298;11.238;2022-11-21T07:20:22;2.25;;;1.70;;
50689;SDS011;54375;48.298;11.238;2022-11-21T07:23:23;1.58;;;1.30;;
50689;SDS011;54375;48.298;11.238;2022-11-21T07:26:23;1.73;;;1.30;;
50689;SDS011;54375;48.298;11.238;2022-11-21T07:29:26;2.47;;;1.00;;
50689;SDS011;54375;48.298;11.238;2022-11-21T07:32:27;2.30;;;0.80;;
50689;SDS011;54375;48.298;11.238;2022-11-21T07:35:28;1.30;;;0.88;;
50689;SDS011;54375;48.298;11.238;2022-11-21T07:38:29;2.03;;;1.00;;
50689;SDS011;54375;48.298;11.238;2022-11-21T07:41:30;1.10;;;0.75;;
50689;SDS011;54375;48.298;11.238;2022-11-21T07:44:32;0.98;;;0.88;;
50689;SDS011;54375;48.298;11.238;2022-11-21T07:50:34;0.70;;;0.70;;
50689;SDS011;54375;48.298;11.238;2022-11-21T07:53:35;1.20;;;0.80;;
50689;SDS011;54375;48.298;11.238;2022-11-21T07:56:36;1.05;;;0.80;;
50689;SDS011;54375;48.298;11.238;2022-11-21T07:59:38;1.67;;;0.90;;
50689;SDS011;54375;48.298;11.238;2022-11-21T08:05:40;1.98;;;0.70;;
50689;SDS011;54375;48.298;11.238;2022-11-21T08:08:42;1.38;;;0.93;;
50689;SDS011;54375;48.298;11.238;2022-11-21T08:11:43;1.45;;;1.00;;
50689;SDS011;54375;48.298;11.238;2022-11-21T08:14:45;3.50;;;1.05;;
50689;SDS011;54375;48.298;11.238;2022-11-21T08:20:46;2.13;;;0.95;;
50689;SDS011;54375;48.298;11.238;2022-11-21T08:23:47;1.42;;;0.93;;
50689;SDS011;54375;48.298;11.238;2022-11-21T08:26:48;2.38;;;0.90;;
50689;SDS011;54375;48.298;11.238;2022-11-21T08:29:51;2.00;;;1.10;;
50689;SDS011;54375;48.298;11.238;2022-11-21T08:32:52;1.92;;;1.00;;
50689;SDS011;54375;48.298;11.238;2022-11-21T08:35:52;2.83;;;1.10;;
50689;SDS011;54375;48.298;11.238;2022-11-21T08:38:53;1.13;;;0.85;;
50689;SDS011;54375;48.298;11.238;2022-11-21T08:41:54;1.50;;;1.10;;
50689;SDS011;54375;48.298;11.238;2022-11-21T08:44:57;2.53;;;1.10;;
50689;SDS011;54375;48.298;11.238;2022-11-21T08:47:58;3.75;;;1.70;;
50689;SDS011;54375;48.298;11.238;2022-11-21T08:50:59;3.67;;;1.90;;
50689;SDS011;54375;48.298;11.238;2022-11-21T08:54:00;3.70;;;1.58;;
50689;SDS011;54375;48.298;11.238;2022-11-21T08:57:01;3.50;;;1.77;;
50689;SDS011;54375;48.298;11.238;2022-11-21T09:00:04;4.15;;;1.48;;
50689;SDS011;54375;48.298;11.238;2022-11-21T09:03:07;7.15;;;3.28;;
50689;SDS011;54375;48.298;11.238;2022-11-21T09:06:08;4.47;;;2.28;;
50689;SDS011;54375;48.298;11.238;2022-11-21T09:09:09;3.55;;;2.30;;
50689;SDS011;54375;48.298;11.238;2022-11-21T09:12:10;5.30;;;2.50;;
50689;SDS011;54375;48.298;11.238;2022-11-21T09:15:12;3.10;;;1.83;;
50689;SDS011;54375;48.298;11.238;2022-11-21T09:18:13;6.65;;;1.65;;
50689;SDS011;54375;48.298;11.238;2022-11-21T09:21:14;4.53;;;1.80;;
50689;SDS011;54375;48.298;11.238;2022-11-21T09:24:16;3.33;;;1.30;;
50689;SDS011;54375;48.298;11.238;2022-11-21T09:27:17;7.88;;;2.95;;
50689;SDS011;54375;48.298;11.238;2022-11-21T09:30:19;3.45;;;1.60;;
50689;SDS011;54375;48.298;11.238;2022-11-21T09:33:20;5.43;;;1.95;;
50689;SDS011;54375;48.298;11.238;2022-11-21T09:36:21;4.90;;;1.63;;
50689;SDS011;54375;48.298;11.238;2022-11-21T09:39:22;6.47;;;3.10;;
50689;SDS011;54375;48.298;11.238;2022-11-21T09:42:37;6.43;;;2.33;;
50689;SDS011;54375;48.298;11.238;2022-11-21T09:45:58;2.80;;;1.40;;
50689;SDS011;54375;48.298;11.238;2022-11-21T09:49:05;6.65;;;2.08;;
50689;SDS011;54375;48.298;11.238;2022-11-21T09:52:12;5.30;;;1.75;;
50689;SDS011;54375;48.298;11.238;2022-11-21T09:55:17;4.30;;;1.65;;
50689;SDS011;54375;48.298;11.238;2022-11-21T09:58:24;4.93;;;2.10;;
50689;SDS011;54375;48.298;11.238;2022-11-21T10:01:31;5.07;;;1.40;;
50689;SDS011;54375;48.298;11.238;2022-11-21T10:04:32;4.22;;;1.30;;
50689;SDS011;54375;48.298;11.238;2022-11-21T10:07:33;3.15;;;1.10;;
50689;SDS011;54375;48.298;11.238;2022-11-21T10:10:43;2.78;;;1.60;;
50689;SDS011;54375;48.298;11.238;2022-11-21T10:13:56;3.88;;;1.88;;
50689;SDS011;54375;48.298;11.238;2022-11-21T10:17:12;4.00;;;1.55;;
50689;SDS011;54375;48.298;11.238;2022-11-21T10:20:32;3.38;;;1.63;;
50689;SDS011;54375;48.298;11.238;2022-11-21T10:24:01;7.70;;;1.75;;
50689;SDS011;54375;48.298;11.238;2022-11-21T10:27:12;6.32;;;3.85;;
50689;SDS011;54375;48.298;11.238;2022-11-21T10:30:16;4.32;;;1.60;;
50689;SDS011;54375;48.298;11.238;2022-11-21T10:33:22;3.38;;;1.40;;
50689;SDS011;54375;48.298;11.238;2022-11-21T10:36:30;6.90;;;2.28;;
50689;SDS011;54375;48.298;11.238;2022-11-21T10:39:36;8.93;;;3.20;;
50689;SDS011;54375;48.298;11.238;2022-11-21T10:42:44;6.53;;;3.20;;
50689;SDS011;54375;48.298;11.238;2022-11-21T10:45:51;8.30;;;3.95;;
50689;SDS011;54375;48.298;11.238;2022-11-21T10:48:56;7.32;;;2.63;;
50689;SDS011;54375;48.298;11.238;2022-11-21T10:52:03;5.38;;;1.40;;
50689;SDS011;54375;48.298;11.238;2022-11-21T10:55:08;3.30;;;1.35;;
50689;SDS011;54375;48.298;11.238;2022-11-21T10:58:15;5.68;;;1.35;;
50689;SDS011;54375;48.298;11.238;2022-11-21T11:01:21;6.18;;;1.80;;
50689;SDS011;54375;48.298;11.238;2022-11-21T11:04:26;4.78;;;1.83;;
50689;SDS011;54375;48.298;11.238;2022-11-21T11:07:28;6.63;;;2.00;;
50689;SDS011;54375;48.298;11.238;2022-11-21T11:10:29;6.65;;;1.90;;
50689;SDS011;54375;48.298;11.238;2022-11-21T11:13:31;4.28;;;2.15;;
50689;SDS011;54375;48.298;11.238;2022-11-21T11:16:49;2.25;;;1.30;;
50689;SDS011;54375;48.298;11.238;2022-11-21T11:19:59;4.68;;;1.25;;
50689;SDS011;54375;48.298;11.238;2022-11-21T11:23:14;5.73;;;1.77;;
50689;SDS011;54375;48.298;11.238;2022-11-21T11:26:27;6.32;;;3.55;;
50689;SDS011;54375;48.298;11.238;2022-11-21T11:29:29;5.45;;;2.20;;
50689;SDS011;54375;48.298;11.238;2022-11-21T11:35:33;2.60;;;1.42;;
50689;SDS011;54375;48.298;11.238;2022-11-21T11:38:36;4.30;;;1.85;;
50689;SDS011;54375;48.298;11.238;2022-11-21T11:41:51;4.75;;;1.30;;
50689;SDS011;54375;48.298;11.238;2022-11-21T11:45:22;4.90;;;1.27;;
50689;SDS011;54375;48.298;11.238;2022-11-21T11:48:30;4.43;;;1.80;;
50689;SDS011;54375;48.298;11.238;2022-11-21T11:51:35;8.10;;;1.80;;
50689;SDS011;54375;48.298;11.238;2022-11-21T11:54:42;2.60;;;1.00;;
50689;SDS011;54375;48.298;11.238;2022-11-21T11:57:47;4.53;;;1.20;;
50689;SDS011;54375;48.298;11.238;2022-11-21T12:00:54;4.82;;;1.50;;
50689;SDS011;54375;48.298;11.238;2022-11-21T12:04:01;3.65;;;1.00;;
50689;SDS011;54375;48.298;11.238;2022-11-21T12:07:14;3.38;;;1.17;;
50689;SDS011;54375;48.298;11.238;2022-11-21T12:10:19;4.25;;;1.20;;
50689;SDS011;54375;48.298;11.238;2022-11-21T12:13:26;3.50;;;1.15;;
50689;SDS011;54375;48.298;11.238;2022-11-21T12:16:29;2.15;;;0.90;;
50689;SDS011;54375;48.298;11.238;2022-11-21T12:19:30;2.83;;;1.47;;
50689;SDS011;54375;48.298;11.238;2022-11-21T12:22:34;6.75;;;1.88;;
50689;SDS011;54375;48.298;11.238;2022-11-21T12:25:37;4.60;;;1.40;;
50689;SDS011;54375;48.298;11.238;2022-11-21T12:28:45;3.40;;;1.45;;
50689;SDS011;54375;48.298;11.238;2022-11-21T12:32:03;2.90;;;0.90;;
50689;SDS011;54375;48.298;11.238;2022-11-21T12:35:16;2.40;;;1.30;;
50689;SDS011;54375;48.298;11.238;2022-11-21T12:38:38;6.13;;;2.35;;
50689;SDS011;54375;48.298;11.238;2022-11-21T12:41:53;8.65;;;2.92;;
50689;SDS011;54375;48.298;11.238;2022-11-21T12:45:07;6.88;;;2.53;;
50689;SDS011;54375;48.298;11.238;2022-11-21T12:51:57;9.25;;;2.67;;
50689;SDS011;54375;48.298;11.238;2022-11-21T12:55:14;6.25;;;2.00;;
50689;SDS011;54375;48.298;11.238;2022-11-21T12:58:22;4.13;;;1.23;;
50689;SDS011;54375;48.298;11.238;2022-11-21T13:01:27;3.38;;;1.50;;
50689;SDS011;54375;48.298;11.238;2022-11-21T13:04:35;7.68;;;3.17;;
50689;SDS011;54375;48.298;11.238;2022-11-21T13:07:38;5.53;;;2.30;;
50689;SDS011;54375;48.298;11.238;2022-11-21T13:10:45;5.25;;;2.03;;
50689;SDS011;54375;48.298;11.238;2022-11-21T13:13:55;4.90;;;1.50;;
50689;SDS011;54375;48.298;11.238;2022-11-21T13:17:03;6.53;;;1.83;;
50689;SDS011;54375;48.298;11.238;2022-11-21T13:20:14;2.80;;;1.52;;
50689;SDS011;54375;48.298;11.238;2022-11-21T13:23:35;3.67;;;1.30;;
50689;SDS011;54375;48.298;11.238;2022-11-21T13:26:46;4.93;;;1.10;;
50689;SDS011;54375;48.298;11.238;2022-11-21T13:36:47;3.67;;;1.48;;
50689;SDS011;54375;48.298;11.238;2022-11-21T13:39:48;4.25;;;1.38;;
50689;SDS011;54375;48.298;11.238;2022-11-21T13:49:59;3.00;;;1.17;;
50689;SDS011;54375;48.298;11.238;2022-11-21T13:53:06;4.43;;;1.15;;
50689;SDS011;54375;48.298;11.238;2022-11-21T13:56:26;4.75;;;1.30;;
50689;SDS011;54375;48.298;11.238;2022-11-21T13:59:39;2.88;;;0.90;;
50689;SDS011;54375;48.298;11.238;2022-11-21T14:02:52;2.47;;;0.90;;
50689;SDS011;54375;48.298;11.238;2022-11-21T14:06:32;2.90;;;1.00;;
50689;SDS011;54375;48.298;11.238;2022-11-21T14:09:35;4.60;;;1.10;;
50689;SDS011;54375;48.298;11.238;2022-11-21T14:12:46;5.63;;;0.90;;
50689;SDS011;54375;48.298;11.238;2022-11-21T14:15:52;2.88;;;0.90;;
50689;SDS011;54375;48.298;11.238;2022-11-21T14:19:16;3.20;;;1.25;;
50689;SDS011;54375;48.298;11.238;2022-11-21T14:22:26;3.00;;;0.85;;
50689;SDS011;54375;48.298;11.238;2022-11-21T14:25:33;5.18;;;1.20;;
50689;SDS011;54375;48.298;11.238;2022-11-21T14:28:36;3.00;;;1.00;;
50689;SDS011;54375;48.298;11.238;2022-11-21T14:31:44;2.07;;;0.80;;
50689;SDS011;54375;48.298;11.238;2022-11-21T14:34:46;4.03;;;0.85;;
50689;SDS011;54375;48.298;11.238;2022-11-21T14:37:47;3.65;;;0.90;;
50689;SDS011;54375;48.298;11.238;2022-11-21T14:40:49;4.43;;;1.17;;
50689;SDS011;54375;48.298;11.238;2022-11-21T14:43:59;3.45;;;1.30;;
50689;SDS011;54375;48.298;11.238;2022-11-21T14:47:04;2.97;;;1.00;;
50689;SDS011;54375;48.298;11.238;2022-11-21T14:50:19;2.97;;;1.23;;
50689;SDS011;54375;48.298;11.238;2022-11-21T14:53:23;4.50;;;1.10;;
50689;SDS011;54375;48.298;11.238;2022-11-21T14:56:25;3.00;;;1.17;;
50689;SDS011;54375;48.298;11.238;2022-11-21T14:59:30;5.72;;;1.35;;
50689;SDS011;54375;48.298;11.238;2022-11-21T15:02:36;4.45;;;1.10;;
50689;SDS011;54375;48.298;11.238;2022-11-21T15:05:37;3.13;;;1.00;;
50689;SDS011;54375;48.298;11.238;2022-11-21T15:08:38;2.43;;;1.00;;
50689;SDS011;54375;48.298;11.238;2022-11-21T15:11:41;1.35;;;0.95;;
50689;SDS011;54375;48.298;11.238;2022-11-21T15:14:48;4.10;;;1.27;;
50689;SDS011;54375;48.298;11.238;2022-11-21T15:17:54;3.50;;;1.27;;
50689;SDS011;54375;48.298;11.238;2022-11-21T15:20:57;2.22;;;0.93;;
50689;SDS011;54375;48.298;11.238;2022-11-21T15:24:14;2.80;;;1.40;;
50689;SDS011;54375;48.298;11.238;2022-11-21T15:27:26;3.00;;;0.93;;
50689;SDS011;54375;48.298;11.238;2022-11-21T15:30:30;2.88;;;1.38;;
50689;SDS011;54375;48.298;11.238;2022-11-21T15:37:01;6.72;;;3.17;;
50689;SDS011;54375;48.298;11.238;2022-11-21T15:40:03;8.63;;;2.78;;
50689;SDS011;54375;48.298;11.238;2022-11-21T15:43:31;4.93;;;1.70;;
50689;SDS011;54375;48.298;11.238;2022-11-21T15:46:33;5.63;;;1.63;;
50689;SDS011;54375;48.298;11.238;2022-11-21T15:49:35;5.57;;;1.90;;
50689;SDS011;54375;48.298;11.238;2022-11-21T15:52:43;3.10;;;1.40;;
50689;SDS011;54375;48.298;11.238;2022-11-21T15:55:45;2.55;;;1.30;;
50689;SDS011;54375;48.298;11.238;2022-11-21T15:58:46;5.20;;;1.95;;
50689;SDS011;54375;48.298;11.238;2022-11-21T16:01:47;5.00;;;1.87;;
50689;SDS011;54375;48.298;11.238;2022-11-21T16:04:48;6.40;;;2.90;;
50689;SDS011;54375;48.298;11.238;2022-11-21T16:07:50;13.38;;;5.22;;
50689;SDS011;54375;48.298;11.238;2022-11-21T16:10:52;15.52;;;6.65;;
50689;SDS011;54375;48.298;11.238;2022-11-21T16:13:53;12.00;;;4.82;;
50689;SDS011;54375;48.298;11.238;2022-11-21T16:19:55;7.75;;;4.53;;
50689;SDS011;54375;48.298;11.238;2022-11-21T16:22:58;12.30;;;5.93;;
50689;SDS011;54375;48.298;11.238;2022-11-21T16:25:59;16.02;;;9.07;;
50689;SDS011;54375;48.298;11.238;2022-11-21T16:29:00;13.55;;;6.28;;
50689;SDS011;54375;48.298;11.238;2022-11-21T16:32:02;14.20;;;7.68;;
50689;SDS011;54375;48.298;11.238;2022-11-21T16:35:04;18.85;;;8.45;;
50689;SDS011;54375;48.298;11.238;2022-11-21T16:38:07;14.38;;;7.00;;
50689;SDS011;54375;48.298;11.238;2022-11-21T16:41:08;9.25;;;4.97;;
50689;SDS011;54375;48.298;11.238;2022-11-21T16:44:10;10.63;;;3.80;;
50689;SDS011;54375;48.298;11.238;2022-11-21T16:47:12;16.63;;;6.47;;
50689;SDS011;54375;48.298;11.238;2022-11-21T16:50:13;10.43;;;6.33;;
50689;SDS011;54375;48.298;11.238;2022-11-21T16:53:16;7.40;;;4.85;;
50689;SDS011;54375;48.298;11.238;2022-11-21T16:56:17;8.00;;;4.30;;
50689;SDS011;54375;48.298;11.238;2022-11-21T16:59:18;8.10;;;4.75;;
50689;SDS011;54375;48.298;11.238;2022-11-21T17:02:19;8.02;;;3.97;;
50689;SDS011;54375;48.298;11.238;2022-11-21T17:05:20;8.50;;;3.30;;
50689;SDS011;54375;48.298;11.238;2022-11-21T17:08:22;4.45;;;2.85;;
50689;SDS011;54375;48.298;11.238;2022-11-21T17:14:25;19.85;;;9.50;;
50689;SDS011;54375;48.298;11.238;2022-11-21T17:17:26;10.13;;;5.87;;
50689;SDS011;54375;48.298;11.238;2022-11-21T17:20:27;7.82;;;3.80;;
50689;SDS011;54375;48.298;11.238;2022-11-21T17:23:30;6.72;;;2.92;;
50689;SDS011;54375;48.298;11.238;2022-11-21T17:26:34;11.50;;;5.10;;
50689;SDS011;54375;48.298;11.238;2022-11-21T17:29:36;8.13;;;3.22;;
50689;SDS011;54375;48.298;11.238;2022-11-21T17:32:37;12.27;;;4.15;;
50689;SDS011;54375;48.298;11.238;2022-11-21T17:35:38;13.23;;;5.35;;
50689;SDS011;54375;48.298;11.238;2022-11-21T17:38:40;10.73;;;5.00;;
50689;SDS011;54375;48.298;11.238;2022-11-21T17:41:42;10.82;;;4.47;;
50689;SDS011;54375;48.298;11.238;2022-11-21T17:44:44;12.85;;;4.47;;
50689;SDS011;54375;48.298;11.238;2022-11-21T17:47:45;8.47;;;3.53;;
50689;SDS011;54375;48.298;11.238;2022-11-21T17:50:46;11.18;;;4.55;;
50689;SDS011;54375;48.298;11.238;2022-11-21T17:53:49;10.07;;;4.70;;
50689;SDS011;54375;48.298;11.238;2022-11-21T17:56:50;13.50;;;8.32;;
50689;SDS011;54375;48.298;11.238;2022-11-21T17:59:52;18.38;;;10.90;;
50689;SDS011;54375;48.298;11.238;2022-11-21T18:02:54;11.20;;;5.20;;
50689;SDS011;54375;48.298;11.238;2022-11-21T18:09:01;8.63;;;5.13;;
50689;SDS011;54375;48.298;11.238;2022-11-21T18:12:04;8.95;;;4.93;;
50689;SDS011;54375;48.298;11.238;2022-11-21T18:15:05;12.43;;;4.75;;
50689;SDS011;54375;48.298;11.238;2022-11-21T18:18:07;9.48;;;4.70;;
50689;SDS011;54375;48.298;11.238;2022-11-21T18:21:09;8.82;;;4.13;;
50689;SDS011;54375;48.298;11.238;2022-11-21T18:24:12;8.82;;;4.13;;
50689;SDS011;54375;48.298;11.238;2022-11-21T18:27:13;14.43;;;4.57;;
50689;SDS011;54375;48.298;11.238;2022-11-21T18:30:15;8.43;;;4.53;;
50689;SDS011;54375;48.298;11.238;2022-11-21T18:33:16;9.70;;;4.50;;
50689;SDS011;54375;48.298;11.238;2022-11-21T18:36:17;9.60;;;5.38;;
50689;SDS011;54375;48.298;11.238;2022-11-21T18:39:20;9.40;;;5.82;;
50689;SDS011;54375;48.298;11.238;2022-11-21T18:42:21;10.82;;;5.20;;
50689;SDS011;54375;48.298;11.238;2022-11-21T18:45:22;11.80;;;6.70;;
50689;SDS011;54375;48.298;11.238;2022-11-21T18:48:23;16.48;;;7.32;;
50689;SDS011;54375;48.298;11.238;2022-11-21T18:51:24;13.38;;;7.05;;
50689;SDS011;54375;48.298;11.238;2022-11-21T18:54:28;16.02;;;7.38;;